Marlboro College, Vermont
Current Conditions -  °F | °C
As of 1:35 PM on Sunday 21 Dec 2014 (Local Time) from KEEN Reporting Station
Overcast Overcast  
Wind Chill: 27°   Ceiling: 800
Heat Index: 32°   Visibility: 8mi
Dew Point: 28°   Wind: 5mph
Humidity: 87%   Direction: 350°N
Pressure: 30.29"   Gusts: NA
Location:  42.8549°N, 72.6883°W
Report Text: KEEN 211835Z AUTO 35004KT 8SM BKN008 OVC025 00/M02 A3029 RMK AO1 P0001
Loading
Personal Weather Stations






























Interactive Weather Map New forecast layout! Learn more

10-Day Weather Forecast

Advertisements
Track Severe Weather on mobile